Time;durP1;ratioP1;P1;durP2;ratioP2;P2;SDS_P1;SDS_P2;PMS_P1;PMS_P2;Temp;Humidity;BMP_temperature;BMP_pressure;BME280_temperature;BME280_humidity;BME280_pressure;Samples;Min_cycle;Max_cycle;Signal;HPM_P1;HPM_P2
2023/04/16 00:01:27;;;;;;;42.20;14.55;;;8.90;99.90;;;;;;4948288;28;20035;-65
2023/04/16 00:03:53;;;;;;;49.60;19.67;;;8.90;99.90;;;;;;4949993;28;20260;-64
2023/04/16 00:06:19;;;;;;;67.68;24.02;;;9.00;99.90;;;;;;4953266;29;20133;-64
2023/04/16 00:08:44;;;;;;;60.42;23.30;;;8.90;99.90;;;;;;4951384;29;20122;-65
2023/04/16 00:11:10;;;;;;;57.92;23.02;;;9.00;99.90;;;;;;4923998;28;20043;-64
2023/04/16 00:13:36;;;;;;;47.22;18.63;;;9.00;99.90;;;;;;4947766;28;20039;-64
2023/04/16 00:16:01;;;;;;;56.67;21.63;;;9.00;99.90;;;;;;4947454;28;20044;-64
2023/04/16 00:18:27;;;;;;;59.88;23.55;;;9.00;99.90;;;;;;4945085;28;20028;-64
2023/04/16 00:20:53;;;;;;;64.18;22.45;;;9.00;99.90;;;;;;4952706;28;20050;-65
2023/04/16 00:23:19;;;;;;;52.03;19.63;;;9.00;99.90;;;;;;4953166;29;20118;-66
2023/04/16 00:25:44;;;;;;;59.45;23.33;;;8.90;99.90;;;;;;4942228;28;20111;-65
2023/04/16 00:28:10;;;;;;;68.07;23.40;;;9.00;99.90;;;;;;4951529;28;20463;-65
2023/04/16 00:30:38;;;;;;;66.80;24.67;;;9.00;99.90;;;;;;4952242;28;20043;-64
2023/04/16 00:33:04;;;;;;;53.33;20.20;;;9.00;99.90;;;;;;4945882;28;20047;-65
2023/04/16 00:35:29;;;;;;;59.33;25.00;;;9.00;99.90;;;;;;4927607;29;20380;-65
2023/04/16 00:37:55;;;;;;;63.85;25.40;;;9.00;99.90;;;;;;4935394;29;20047;-65
2023/04/16 00:40:21;;;;;;;57.67;22.55;;;9.00;99.90;;;;;;4952515;28;20438;-65
2023/04/16 00:42:46;;;;;;;63.97;24.65;;;9.00;99.90;;;;;;4925439;29;20046;-65
2023/04/16 00:45:12;;;;;;;61.72;23.38;;;9.00;99.90;;;;;;4951739;28;20041;-65
2023/04/16 00:47:37;;;;;;;64.20;25.25;;;9.00;99.90;;;;;;4952021;28;20102;-65
2023/04/16 00:50:03;;;;;;;58.00;23.33;;;9.00;99.90;;;;;;4948055;28;20168;-65
2023/04/16 00:52:31;;;;;;;51.65;19.52;;;9.00;99.90;;;;;;4939932;28;20043;-65
2023/04/16 00:54:57;;;;;;;61.97;23.90;;;9.00;99.90;;;;;;4952029;28;20493;-65
2023/04/16 00:57:23;;;;;;;59.60;24.65;;;9.00;99.90;;;;;;4952667;29;20043;-65
2023/04/16 00:59:49;;;;;;;61.88;24.25;;;9.10;99.90;;;;;;4940582;28;20045;-65
2023/04/16 01:02:15;;;;;;;67.90;25.38;;;9.10;99.90;;;;;;4944356;28;20039;-64
2023/04/16 01:04:41;;;;;;;70.90;26.65;;;9.00;99.90;;;;;;4952396;28;20093;-65
2023/04/16 01:07:07;;;;;;;75.88;25.73;;;9.10;99.90;;;;;;4939272;28;20051;-65
2023/04/16 01:09:32;;;;;;;69.15;25.52;;;9.00;99.90;;;;;;4933653;29;20042;-65
2023/04/16 01:11:58;;;;;;;64.88;23.77;;;9.10;99.90;;;;;;4952498;28;20510;-65
2023/04/16 01:14:23;;;;;;;68.88;26.92;;;9.00;99.90;;;;;;4952832;29;20402;-64
2023/04/16 01:16:49;;;;;;;65.55;25.17;;;9.00;99.90;;;;;;4941637;28;20060;-65
2023/04/16 01:19:14;;;;;;;60.85;24.27;;;9.10;99.90;;;;;;4949571;28;20063;-64
2023/04/16 01:21:40;;;;;;;67.57;24.52;;;9.10;99.90;;;;;;4952135;28;20036;-64
2023/04/16 01:24:06;;;;;;;54.80;22.92;;;9.00;99.90;;;;;;4939594;28;20050;-64
2023/04/16 01:26:32;;;;;;;69.63;27.63;;;9.10;99.90;;;;;;4949665;28;20042;-64
2023/04/16 01:28:58;;;;;;;63.70;26.30;;;9.00;99.90;;;;;;4951659;28;20140;-64
2023/04/16 01:31:24;;;;;;;51.63;22.55;;;9.10;99.90;;;;;;4942008;28;20491;-64
2023/04/16 01:33:49;;;;;;;63.63;26.73;;;9.00;99.90;;;;;;4945636;28;20036;-65
2023/04/16 01:36:15;;;;;;;60.92;25.95;;;9.00;99.90;;;;;;4952137;28;20118;-64
2023/04/16 01:38:40;;;;;;;69.70;28.55;;;9.00;99.90;;;;;;4944526;29;20039;-64
2023/04/16 01:41:06;;;;;;;62.70;27.17;;;9.00;99.90;;;;;;4940841;28;20044;-64
2023/04/16 01:43:32;;;;;;;64.38;27.25;;;9.00;99.90;;;;;;4948125;28;20046;-65
2023/04/16 01:46:12;;;;;;;67.20;26.63;;;9.00;99.90;;;;;;4952044;28;20035;-65
2023/04/16 01:48:37;;;;;;;59.25;25.85;;;9.00;99.90;;;;;;4926804;29;20399;-65
2023/04/16 01:51:04;;;;;;;55.08;24.63;;;9.00;99.90;;;;;;4944932;28;20047;-66
2023/04/16 01:53:29;;;;;;;61.80;26.60;;;9.00;99.90;;;;;;4950794;28;20405;-65
2023/04/16 01:55:55;;;;;;;62.78;27.00;;;9.00;99.90;;;;;;4952111;29;20196;-64
2023/04/16 01:58:20;;;;;;;67.28;25.15;;;9.00;99.90;;;;;;4934678;28;20035;-64
2023/04/16 02:00:46;;;;;;;69.63;26.92;;;9.00;99.90;;;;;;4954733;28;20066;-66
2023/04/16 02:03:12;;;;;;;47.53;17.63;;;9.00;99.90;;;;;;4955194;28;20043;-66
2023/04/16 02:05:37;;;;;;;53.33;24.55;;;9.00;99.90;;;;;;4952040;29;20517;-64
2023/04/16 02:08:03;;;;;;;60.05;23.60;;;9.00;99.90;;;;;;4949805;28;20126;-65
2023/04/16 02:10:28;;;;;;;46.15;20.70;;;9.00;99.90;;;;;;4954965;28;20062;-64
2023/04/16 02:12:54;;;;;;;48.72;18.67;;;9.00;99.90;;;;;;4955378;29;20047;-64
2023/04/16 02:15:20;;;;;;;64.57;27.17;;;9.00;99.90;;;;;;4944868;28;20118;-64
2023/04/16 02:17:47;;;;;;;59.03;25.10;;;8.90;99.90;;;;;;4951538;28;20414;-64
2023/04/16 02:20:13;;;;;;;60.35;27.48;;;8.90;99.90;;;;;;4937706;29;20051;-64
2023/04/16 02:22:38;;;;;;;50.53;20.15;;;8.90;99.90;;;;;;4926942;29;20506;-64
2023/04/16 02:25:04;;;;;;;62.13;27.15;;;9.00;99.90;;;;;;4948540;28;20075;-65
2023/04/16 02:27:29;;;;;;;53.78;23.85;;;9.00;99.90;;;;;;4954671;28;20082;-65
2023/04/16 02:29:55;;;;;;;42.20;20.08;;;8.90;99.90;;;;;;4950655;28;20047;-65
2023/04/16 02:32:21;;;;;;;50.28;23.02;;;8.90;99.90;;;;;;4920668;29;20043;-65
2023/04/16 02:34:46;;;;;;;54.05;23.27;;;8.90;99.90;;;;;;4950888;28;20548;-65
2023/04/16 02:37:14;;;;;;;61.20;26.40;;;8.90;99.90;;;;;;4954753;28;20512;-65
2023/04/16 02:39:40;;;;;;;41.35;19.90;;;8.90;99.90;;;;;;4947847;28;20533;-65
2023/04/16 02:42:05;;;;;;;59.58;27.95;;;8.90;99.90;;;;;;4954275;28;20039;-65
2023/04/16 02:44:31;;;;;;;58.28;26.95;;;8.90;99.90;;;;;;4955515;28;20035;-65
2023/04/16 02:46:56;;;;;;;56.25;22.58;;;8.90;99.90;;;;;;4951359;28;20094;-65
2023/04/16 02:49:22;;;;;;;56.30;23.85;;;8.80;99.90;;;;;;4951961;28;20043;-65
2023/04/16 02:51:47;;;;;;;54.58;24.90;;;8.80;99.90;;;;;;4954917;28;20054;-66
2023/04/16 02:54:13;;;;;;;54.33;25.25;;;8.80;99.90;;;;;;4955590;29;20118;-65
2023/04/16 02:56:38;;;;;;;50.95;22.10;;;8.80;99.90;;;;;;4950453;28;20039;-64
2023/04/16 02:59:04;;;;;;;59.13;26.23;;;8.80;99.90;;;;;;4953185;28;20054;-65
2023/04/16 03:01:29;;;;;;;59.97;25.75;;;8.80;99.90;;;;;;4955406;29;20039;-65
2023/04/16 03:03:55;;;;;;;53.22;23.25;;;8.80;99.90;;;;;;4948202;28;20043;-64
2023/04/16 03:06:21;;;;;;;57.53;25.38;;;8.80;99.90;;;;;;4947171;28;20178;-65
2023/04/16 03:08:46;;;;;;;47.63;21.15;;;8.80;99.90;;;;;;4954099;28;20140;-65
2023/04/16 03:11:12;;;;;;;66.13;26.55;;;8.80;99.90;;;;;;4954034;28;20051;-66
2023/04/16 03:13:37;;;;;;;68.45;27.50;;;8.80;99.90;;;;;;4950234;28;20039;-65
2023/04/16 03:16:03;;;;;;;54.42;25.13;;;8.80;99.90;;;;;;4936789;28;20043;-64
2023/04/16 03:18:28;;;;;;;40.50;16.73;;;8.80;99.90;;;;;;4948831;29;20031;-64
2023/04/16 03:20:54;;;;;;;61.22;26.83;;;8.80;99.90;;;;;;4920130;28;20070;-64
2023/04/16 03:23:19;;;;;;;50.72;19.45;;;8.80;99.90;;;;;;4942338;28;20114;-64
2023/04/16 03:25:46;;;;;;;50.58;22.42;;;8.80;99.90;;;;;;4954702;28;20414;-64
2023/04/16 03:28:12;;;;;;;58.17;24.55;;;8.80;99.90;;;;;;4936640;29;20556;-64
2023/04/16 03:30:38;;;;;;;60.55;26.85;;;8.80;99.90;;;;;;4925924;29;20039;-64
2023/04/16 03:33:03;;;;;;;63.53;28.27;;;8.80;99.90;;;;;;4949763;28;20062;-64
2023/04/16 03:35:29;;;;;;;46.75;19.45;;;8.70;99.90;;;;;;4943502;28;20687;-64
2023/04/16 03:37:55;;;;;;;27.48;15.05;;;8.70;99.90;;;;;;4928487;28;20090;-65
2023/04/16 03:40:20;;;;;;;57.90;25.90;;;8.60;99.90;;;;;;4936431;29;20043;-64
2023/04/16 03:42:46;;;;;;;60.28;25.77;;;8.60;99.90;;;;;;4950045;28;20051;-65
2023/04/16 03:45:11;;;;;;;51.25;22.83;;;8.60;99.90;;;;;;4945696;28;20095;-65
2023/04/16 03:47:37;;;;;;;51.13;24.25;;;8.60;99.90;;;;;;4952932;28;20043;-65
2023/04/16 03:50:03;;;;;;;52.85;26.58;;;8.60;99.90;;;;;;4953739;29;20031;-64
2023/04/16 03:52:28;;;;;;;58.65;25.58;;;8.60;99.90;;;;;;4945928;28;20491;-65
2023/04/16 03:54:54;;;;;;;66.18;26.48;;;8.50;99.90;;;;;;4938736;28;20123;-66
2023/04/16 03:57:19;;;;;;;55.45;25.67;;;8.50;99.90;;;;;;4953303;28;20418;-66
2023/04/16 03:59:45;;;;;;;58.85;27.92;;;8.50;99.90;;;;;;4954029;28;20414;-65
2023/04/16 04:02:10;;;;;;;56.33;25.55;;;8.50;99.90;;;;;;4953829;28;20047;-65
2023/04/16 04:04:36;;;;;;;52.60;24.63;;;8.50;99.90;;;;;;4943595;28;20039;-66
2023/04/16 04:07:01;;;;;;;50.60;21.15;;;8.50;99.90;;;;;;4946526;28;20126;-66
2023/04/16 04:09:27;;;;;;;54.85;23.27;;;8.50;99.90;;;;;;4953114;28;20063;-65
2023/04/16 04:11:53;;;;;;;56.20;23.00;;;8.40;99.90;;;;;;4937586;28;20044;-66
2023/04/16 04:14:19;;;;;;;44.47;20.90;;;8.40;99.90;;;;;;4930499;29;20050;-65
2023/04/16 04:16:45;;;;;;;59.30;25.73;;;8.40;99.90;;;;;;4953773;28;20035;-65
2023/04/16 04:19:10;;;;;;;55.60;25.77;;;8.40;99.90;;;;;;4949070;28;20494;-64
2023/04/16 04:21:36;;;;;;;55.17;24.63;;;8.40;99.90;;;;;;4946882;28;20086;-64
2023/04/16 04:24:01;;;;;;;33.30;16.05;;;8.40;99.90;;;;;;4953787;28;20078;-64
2023/04/16 04:26:27;;;;;;;55.67;25.58;;;8.40;99.90;;;;;;4953467;29;20050;-64
2023/04/16 04:28:52;;;;;;;53.25;23.83;;;8.40;99.90;;;;;;4945779;28;20050;-64
2023/04/16 04:31:18;;;;;;;56.90;27.90;;;8.40;99.90;;;;;;4952955;28;20098;-64
2023/04/16 04:33:43;;;;;;;61.30;28.27;;;8.40;99.90;;;;;;4953400;28;20047;-64
2023/04/16 04:36:09;;;;;;;59.53;27.48;;;8.40;99.90;;;;;;4948739;28;20041;-64
2023/04/16 04:38:35;;;;;;;57.95;27.23;;;8.40;99.90;;;;;;4941274;28;20070;-64
2023/04/16 04:41:00;;;;;;;56.08;25.90;;;8.40;99.90;;;;;;4952467;28;20122;-64
2023/04/16 04:43:26;;;;;;;50.30;22.98;;;8.40;99.90;;;;;;4941427;28;20059;-64
2023/04/16 04:45:51;;;;;;;56.08;26.73;;;8.40;99.90;;;;;;4940684;28;20123;-64
2023/04/16 04:48:17;;;;;;;57.00;27.40;;;8.40;99.90;;;;;;4952062;28;20042;-64
2023/04/16 04:50:44;;;;;;;51.75;22.60;;;8.40;99.90;;;;;;4952309;29;20039;-65
2023/04/16 04:53:10;;;;;;;59.53;25.98;;;8.40;99.90;;;;;;4951998;29;20047;-65
2023/04/16 04:55:37;;;;;;;54.30;26.15;;;8.40;99.90;;;;;;4945831;28;20755;-64
2023/04/16 04:58:06;;;;;;;50.65;22.77;;;8.40;99.90;;;;;;4949887;28;20482;-64
2023/04/16 05:00:33;;;;;;;51.30;25.38;;;8.40;99.90;;;;;;4953169;29;20122;-64
2023/04/16 05:03:04;;;;;;;48.50;23.60;;;8.40;99.90;;;;;;4936450;28;20094;-64
2023/04/16 05:05:33;;;;;;;48.13;21.35;;;8.40;99.90;;;;;;4947776;28;20047;-64
2023/04/16 05:07:58;;;;;;;50.60;24.27;;;8.40;99.90;;;;;;4952738;28;20098;-64
2023/04/16 05:10:25;;;;;;;49.17;23.80;;;8.40;99.90;;;;;;4937436;28;20123;-64
2023/04/16 05:12:51;;;;;;;57.58;27.17;;;8.50;99.90;;;;;;4942137;28;20134;-65
2023/04/16 05:15:16;;;;;;;42.88;19.52;;;8.50;99.90;;;;;;4952831;28;20114;-64
2023/04/16 05:17:42;;;;;;;64.03;28.63;;;8.50;99.90;;;;;;4950518;28;20042;-65
2023/04/16 05:20:08;;;;;;;58.00;27.75;;;8.50;99.90;;;;;;4942738;28;20040;-64
2023/04/16 05:22:34;;;;;;;60.20;27.60;;;8.60;99.90;;;;;;4952867;28;20410;-64
2023/04/16 05:25:00;;;;;;;60.42;28.58;;;8.60;99.90;;;;;;4953366;29;20035;-64
2023/04/16 05:27:25;;;;;;;61.75;28.23;;;8.70;99.90;;;;;;4943025;28;20157;-64
2023/04/16 05:29:51;;;;;;;65.70;27.83;;;8.80;99.90;;;;;;4947944;28;20175;-65
2023/04/16 05:32:16;;;;;;;57.50;27.58;;;8.80;99.90;;;;;;4949983;28;20206;-65
2023/04/16 05:34:42;;;;;;;54.53;24.33;;;8.90;99.90;;;;;;4950731;28;20137;-65
2023/04/16 05:37:07;;;;;;;62.67;27.95;;;8.90;99.90;;;;;;4952227;28;20183;-66
2023/04/16 05:39:33;;;;;;;59.95;29.17;;;8.90;99.90;;;;;;4955443;28;20039;-65
2023/04/16 05:41:58;;;;;;;61.83;27.65;;;9.00;99.90;;;;;;4953673;29;20047;-65
2023/04/16 05:44:24;;;;;;;59.05;27.63;;;9.00;99.90;;;;;;4942178;28;20039;-65
2023/04/16 05:46:50;;;;;;;59.03;28.67;;;9.10;99.90;;;;;;4945463;28;20039;-64
2023/04/16 05:49:17;;;;;;;61.10;29.02;;;9.10;99.90;;;;;;4946417;28;20050;-63
2023/04/16 05:51:43;;;;;;;49.55;21.30;;;9.10;99.90;;;;;;4945642;28;20503;-63
2023/04/16 05:54:09;;;;;;;59.92;27.52;;;9.10;99.90;;;;;;4953670;28;20035;-63
2023/04/16 05:56:34;;;;;;;59.42;26.63;;;9.10;99.90;;;;;;4948391;28;20054;-63
2023/04/16 05:59:00;;;;;;;59.38;28.60;;;9.10;99.90;;;;;;4950668;28;20046;-63
2023/04/16 06:01:25;;;;;;;63.05;29.48;;;9.10;99.90;;;;;;4945303;28;20102;-63
2023/04/16 06:03:51;;;;;;;58.78;28.08;;;9.10;99.90;;;;;;4952387;28;20042;-64
2023/04/16 06:06:16;;;;;;;61.28;27.70;;;9.10;99.90;;;;;;4953807;29;20027;-63
2023/04/16 06:08:42;;;;;;;59.47;26.65;;;9.10;99.90;;;;;;4942258;28;20187;-64
2023/04/16 06:11:07;;;;;;;51.63;25.85;;;9.10;99.90;;;;;;4948775;28;20126;-65
2023/04/16 06:13:33;;;;;;;60.45;26.60;;;9.10;99.90;;;;;;4953844;28;20043;-65
2023/04/16 06:15:58;;;;;;;54.40;25.15;;;9.10;99.90;;;;;;4950072;28;20047;-65
2023/04/16 06:18:24;;;;;;;53.50;27.60;;;9.10;99.90;;;;;;4945472;28;20039;-64
2023/04/16 06:20:50;;;;;;;56.75;27.13;;;9.10;99.90;;;;;;4926890;28;20043;-66
2023/04/16 06:23:15;;;;;;;52.80;25.15;;;9.20;99.90;;;;;;4947430;28;20126;-64
2023/04/16 06:25:41;;;;;;;60.70;26.55;;;9.30;99.90;;;;;;4944879;28;20057;-64
2023/04/16 06:28:06;;;;;;;45.72;23.95;;;9.30;99.90;;;;;;4949090;28;20035;-64
2023/04/16 06:30:33;;;;;;;38.13;19.00;;;9.20;99.90;;;;;;4947616;28;20051;-64
2023/04/16 06:32:59;;;;;;;57.28;25.88;;;9.20;99.90;;;;;;4942277;28;20054;-64
2023/04/16 06:35:24;;;;;;;53.13;26.58;;;9.20;99.90;;;;;;4948569;28;20038;-64
2023/04/16 06:37:50;;;;;;;49.25;22.98;;;9.10;99.90;;;;;;4947077;28;20494;-65
2023/04/16 06:40:16;;;;;;;51.70;26.13;;;9.10;99.90;;;;;;4932880;28;20095;-65
2023/04/16 06:42:41;;;;;;;51.75;26.50;;;9.00;99.90;;;;;;4936812;28;20069;-64
2023/04/16 06:45:08;;;;;;;52.03;26.00;;;9.00;99.90;;;;;;4945316;28;20046;-64
2023/04/16 06:47:33;;;;;;;49.70;26.17;;;8.90;99.90;;;;;;4945831;28;20039;-65
2023/04/16 06:49:59;;;;;;;57.45;24.95;;;8.90;99.90;;;;;;4948501;29;20047;-65
2023/04/16 06:52:25;;;;;;;49.67;24.15;;;8.90;99.90;;;;;;4942178;28;20039;-66
2023/04/16 06:54:50;;;;;;;56.63;27.20;;;9.00;99.90;;;;;;4929667;28;20038;-66
2023/04/16 06:57:16;;;;;;;57.28;25.88;;;9.00;99.90;;;;;;4949055;28;20118;-65
2023/04/16 06:59:41;;;;;;;48.97;24.25;;;9.10;99.90;;;;;;4940357;28;20118;-64
2023/04/16 07:02:09;;;;;;;45.20;22.48;;;9.10;99.90;;;;;;4945066;28;20089;-64
2023/04/16 07:04:34;;;;;;;46.10;20.40;;;9.20;99.90;;;;;;4946143;28;20047;-65
2023/04/16 07:07:00;;;;;;;52.50;26.60;;;9.20;99.90;;;;;;4940428;28;20050;-65
2023/04/16 07:09:26;;;;;;;50.05;24.00;;;9.30;99.90;;;;;;4941205;28;20044;-65
2023/04/16 07:11:52;;;;;;;55.17;26.67;;;9.30;99.90;;;;;;4933328;28;20479;-65
2023/04/16 07:14:18;;;;;;;48.03;24.42;;;9.40;99.90;;;;;;4951997;29;20514;-65
2023/04/16 07:16:43;;;;;;;53.35;26.42;;;9.50;99.90;;;;;;4943091;28;20070;-63
2023/04/16 07:19:09;;;;;;;52.13;25.35;;;9.60;99.90;;;;;;4938929;28;20126;-66
2023/04/16 07:21:35;;;;;;;53.28;26.42;;;9.70;99.90;;;;;;4930355;29;20669;-66
2023/04/16 07:24:01;;;;;;;53.47;26.70;;;9.80;99.90;;;;;;4953686;28;20054;-66
2023/04/16 07:26:26;;;;;;;51.67;25.98;;;9.90;99.90;;;;;;4951490;29;20039;-66
2023/04/16 07:28:52;;;;;;;48.08;25.42;;;10.00;99.90;;;;;;4942746;28;20051;-66
2023/04/16 07:31:17;;;;;;;49.55;24.95;;;10.00;99.90;;;;;;4951402;28;20039;-66
2023/04/16 07:33:43;;;;;;;50.45;26.05;;;10.00;99.90;;;;;;4953551;28;20494;-66
2023/04/16 07:36:09;;;;;;;52.53;23.92;;;10.10;99.90;;;;;;4954129;28;20043;-67
2023/04/16 07:38:35;;;;;;;54.78;23.02;;;10.20;99.90;;;;;;4954441;29;20410;-66
2023/04/16 07:41:01;;;;;;;49.67;24.88;;;10.20;99.90;;;;;;4950559;28;20039;-65
2023/04/16 07:43:26;;;;;;;50.55;23.85;;;10.20;99.90;;;;;;4942498;28;20390;-64
2023/04/16 07:45:52;;;;;;;50.45;23.65;;;10.20;99.90;;;;;;4951707;28;20039;-64
2023/04/16 07:48:17;;;;;;;51.15;24.95;;;10.20;99.90;;;;;;4947622;29;20051;-65
2023/04/16 07:50:43;;;;;;;46.42;23.92;;;10.30;99.90;;;;;;4945459;28;20035;-66
2023/04/16 07:53:08;;;;;;;53.80;26.05;;;10.30;99.90;;;;;;4946231;28;20031;-65
2023/04/16 07:55:34;;;;;;;50.90;23.92;;;10.30;99.90;;;;;;4945415;29;20406;-64
2023/04/16 07:58:01;;;;;;;51.00;23.08;;;10.30;99.90;;;;;;4942957;28;20031;-64
2023/04/16 08:00:27;;;;;;;51.92;24.98;;;10.40;99.90;;;;;;4961329;23;20070;-65
2023/04/16 08:02:52;;;;;;;48.55;23.85;;;10.40;99.90;;;;;;4964126;28;20153;-65
2023/04/16 08:05:18;;;;;;;49.13;21.85;;;10.40;99.90;;;;;;4959802;28;20039;-66
2023/04/16 08:07:43;;;;;;;61.60;25.67;;;10.30;99.90;;;;;;4947423;28;20043;-66
2023/04/16 08:10:09;;;;;;;49.72;24.42;;;10.30;99.90;;;;;;4962762;28;20034;-66
2023/04/16 08:12:35;;;;;;;43.65;23.13;;;10.20;99.90;;;;;;4961703;28;20047;-65
2023/04/16 08:15:01;;;;;;;40.50;20.15;;;10.20;99.90;;;;;;4962776;28;20127;-66
2023/04/16 08:17:28;;;;;;;44.53;24.00;;;10.20;99.90;;;;;;4967626;28;20038;-66
2023/04/16 08:19:53;;;;;;;48.63;24.00;;;10.20;99.90;;;;;;4970244;28;20047;-66
2023/04/16 08:22:19;;;;;;;39.88;21.48;;;10.20;99.90;;;;;;4964383;28;20089;-66
2023/04/16 08:24:45;;;;;;;42.60;22.38;;;10.20;99.90;;;;;;4972538;28;20130;-66
2023/04/16 08:27:11;;;;;;;37.83;21.85;;;10.20;99.90;;;;;;4964600;28;20126;-66
2023/04/16 08:29:36;;;;;;;44.13;22.50;;;10.40;99.90;;;;;;4972662;28;20468;-66
2023/04/16 08:32:02;;;;;;;43.97;21.58;;;10.40;99.90;;;;;;4964121;28;20053;-66
2023/04/16 08:34:27;;;;;;;35.55;19.10;;;10.50;99.90;;;;;;4960384;28;20035;-66
2023/04/16 08:36:53;;;;;;;42.28;21.02;;;10.50;99.90;;;;;;4964881;28;20485;-65
2023/04/16 08:39:18;;;;;;;44.42;22.85;;;10.50;99.90;;;;;;4962656;28;20090;-67
2023/04/16 08:41:45;;;;;;;43.25;24.60;;;10.60;99.90;;;;;;4958445;28;20086;-66
2023/04/16 08:44:20;;;;;;;39.72;21.02;;;10.70;99.90;;;;;;4960929;28;20077;-66
2023/04/16 08:46:46;;;;;;;44.85;24.38;;;10.70;99.90;;;;;;4955795;28;20047;-66
2023/04/16 08:49:16;;;;;;;40.95;22.77;;;10.90;99.90;;;;;;4961873;28;20043;-66
2023/04/16 08:51:52;;;;;;;45.80;23.38;;;10.90;99.90;;;;;;4946309;28;20085;-66
2023/04/16 08:54:25;;;;;;;44.45;20.48;;;11.00;99.90;;;;;;4958777;28;20118;-65
2023/04/16 08:56:51;;;;;;;39.97;21.42;;;11.10;99.90;;;;;;4958635;28;20043;-66
2023/04/16 08:59:17;;;;;;;40.33;20.65;;;11.10;99.90;;;;;;4963517;28;20131;-66
2023/04/16 09:01:45;;;;;;;42.28;23.25;;;11.20;99.90;;;;;;4959964;28;20444;-65
2023/04/16 09:04:13;;;;;;;45.03;22.83;;;11.30;99.90;;;;;;4960623;28;20073;-66
2023/04/16 09:06:41;;;;;;;36.33;20.23;;;11.30;99.90;;;;;;4957686;28;20039;-66
2023/04/16 09:09:07;;;;;;;38.75;21.13;;;11.30;99.90;;;;;;4960644;28;20051;-66
2023/04/16 09:11:33;;;;;;;41.10;20.80;;;11.40;99.90;;;;;;4967593;28;20681;-65
2023/04/16 09:13:59;;;;;;;39.05;18.90;;;11.60;99.90;;;;;;4966047;28;20114;-66
2023/04/16 09:16:29;;;;;;;43.72;24.73;;;11.80;99.90;;;;;;4967200;28;20493;-66
2023/04/16 09:18:55;;;;;;;45.00;23.17;;;12.00;99.90;;;;;;4964103;28;20039;-65
2023/04/16 09:21:20;;;;;;;40.80;22.58;;;12.10;99.90;;;;;;4963691;28;20101;-65
2023/04/16 09:23:46;;;;;;;35.92;21.05;;;12.20;99.90;;;;;;4967979;28;20458;-65
2023/04/16 09:26:12;;;;;;;36.00;17.75;;;12.30;99.90;;;;;;4965203;28;20035;-66
2023/04/16 09:28:41;;;;;;;33.45;19.55;;;12.30;99.90;;;;;;4944936;28;20035;-66
2023/04/16 09:31:17;;;;;;;33.05;17.95;;;12.30;99.90;;;;;;4961461;28;20135;-65
2023/04/16 09:33:59;;;;;;;43.33;20.80;;;12.40;99.90;;;;;;4960058;28;20408;-65
2023/04/16 09:36:26;;;;;;;37.65;22.02;;;12.50;99.90;;;;;;4947336;29;20524;-66
2023/04/16 09:38:53;;;;;;;36.55;21.27;;;12.70;99.90;;;;;;4941225;29;20047;-66
2023/04/16 09:41:23;;;;;;;38.97;20.10;;;12.80;99.90;;;;;;4969770;28;20070;-66
2023/04/16 09:43:56;;;;;;;36.92;18.65;;;12.90;99.90;;;;;;4962447;28;20034;-66
2023/04/16 09:46:23;;;;;;;39.13;21.85;;;12.80;99.90;;;;;;4940933;28;20038;-65
2023/04/16 09:48:49;;;;;;;38.30;21.88;;;12.80;99.90;;;;;;4968251;28;20039;-66
2023/04/16 09:51:15;;;;;;;39.58;22.80;;;12.90;99.90;;;;;;4967597;28;20134;-66
2023/04/16 09:53:40;;;;;;;38.35;21.98;;;13.00;99.90;;;;;;4975750;28;20073;-66
2023/04/16 09:56:08;;;;;;;34.13;19.50;;;13.10;99.90;;;;;;4959191;28;20082;-65
2023/04/16 09:58:37;;;;;;;38.47;22.70;;;13.10;99.90;;;;;;4943958;28;20039;-66
2023/04/16 10:01:05;;;;;;;40.67;22.27;;;13.10;99.90;;;;;;4972009;28;20043;-65
2023/04/16 10:03:32;;;;;;;37.30;20.80;;;13.20;99.90;;;;;;4965520;28;20050;-66
2023/04/16 10:06:18;;;;;;;34.28;20.45;;;13.30;99.90;;;;;;4966374;28;20049;-66
2023/04/16 10:08:52;;;;;;;41.50;21.00;;;13.20;99.90;;;;;;4952865;28;20050;-66
2023/04/16 10:11:19;;;;;;;32.60;17.45;;;13.20;99.90;;;;;;4958023;28;20042;-66
2023/04/16 10:13:45;;;;;;;36.03;20.33;;;13.20;99.90;;;;;;4962258;28;20461;-67
2023/04/16 10:16:11;;;;;;;36.50;20.20;;;13.20;99.90;;;;;;4964512;28;20050;-66
2023/04/16 10:18:39;;;;;;;40.45;22.10;;;13.20;99.90;;;;;;4961635;28;20035;-65
2023/04/16 10:21:05;;;;;;;37.35;21.52;;;13.30;99.90;;;;;;4961283;28;20441;-66
2023/04/16 10:23:31;;;;;;;37.05;21.13;;;13.40;99.90;;;;;;4965802;28;20486;-67
2023/04/16 10:25:59;;;;;;;35.28;19.92;;;13.60;99.90;;;;;;4967361;28;20487;-65
2023/04/16 10:28:27;;;;;;;33.90;19.90;;;13.80;99.90;;;;;;4962790;28;20039;-67
2023/04/16 10:30:56;;;;;;;36.17;19.67;;;13.70;99.90;;;;;;4966448;28;20405;-67
2023/04/16 10:33:27;;;;;;;36.25;20.15;;;13.80;99.90;;;;;;4966666;28;20446;-66
2023/04/16 10:36:06;;;;;;;40.45;21.50;;;13.90;99.90;;;;;;4969069;28;20489;-66
2023/04/16 10:38:32;;;;;;;34.90;21.33;;;14.00;99.90;;;;;;4963592;28;20035;-65
2023/04/16 10:41:05;;;;;;;36.47;21.67;;;14.10;99.90;;;;;;4968532;28;20130;-66
2023/04/16 10:43:37;;;;;;;39.60;21.23;;;14.30;99.90;;;;;;4967050;28;20043;-65
2023/04/16 10:46:17;;;;;;;;;;;14.60;99.90;;;;;;4960587;28;20045;-64
2023/04/16 10:48:43;;;;;;;34.22;20.55;;;14.80;99.90;;;;;;4961139;28;20285;-66
2023/04/16 10:51:26;;;;;;;34.22;18.52;;;14.90;99.90;;;;;;4971878;28;20035;-66
2023/04/16 10:54:01;;;;;;;37.67;21.08;;;14.90;99.90;;;;;;4940242;28;20465;-65
2023/04/16 10:56:26;;;;;;;38.92;21.33;;;14.90;99.90;;;;;;4965668;28;20035;-65
2023/04/16 10:58:54;;;;;;;34.25;20.83;;;15.00;99.90;;;;;;4941122;29;20428;-65
2023/04/16 11:01:30;;;;;;;33.78;18.67;;;15.00;99.90;;;;;;4959864;28;20553;-65
2023/04/16 11:03:59;;;;;;;37.75;22.33;;;15.10;99.90;;;;;;4973134;28;20086;-65
2023/04/16 11:06:26;;;;;;;39.70;22.17;;;15.30;99.90;;;;;;4967756;28;20047;-65
2023/04/16 11:08:52;;;;;;;36.95;20.67;;;15.40;99.90;;;;;;4957741;28;20035;-65
2023/04/16 11:11:18;;;;;;;34.75;21.23;;;15.30;99.90;;;;;;4957219;28;20046;-65
2023/04/16 11:13:44;;;;;;;38.85;21.48;;;15.30;99.90;;;;;;4966715;28;20078;-65
2023/04/16 11:16:12;;;;;;;36.75;21.92;;;15.40;99.90;;;;;;4940769;28;20134;-66
2023/04/16 11:18:41;;;;;;;32.78;20.33;;;15.50;99.90;;;;;;4961458;28;20047;-65
2023/04/16 11:21:09;;;;;;;36.17;19.92;;;15.50;99.90;;;;;;4962830;28;20034;-65
2023/04/16 11:23:51;;;;;;;33.70;19.15;;;15.70;99.90;;;;;;4953994;29;20137;-65
2023/04/16 11:26:28;;;;;;;35.20;19.00;;;15.70;99.90;;;;;;4963728;28;20086;-64
2023/04/16 11:28:55;;;;;;;35.10;20.77;;;15.80;99.90;;;;;;4946846;28;20050;-65
2023/04/16 11:31:22;;;;;;;32.90;18.92;;;15.80;99.90;;;;;;4961513;28;20035;-64
2023/04/16 11:33:48;;;;;;;33.03;20.33;;;15.90;99.90;;;;;;4957507;28;20043;-65
2023/04/16 11:36:14;;;;;;;30.02;19.52;;;15.80;99.90;;;;;;4965901;28;20054;-66
2023/04/16 11:38:40;;;;;;;32.05;19.13;;;15.70;99.90;;;;;;4961638;28;20041;-65
2023/04/16 11:41:06;;;;;;;29.65;18.40;;;15.40;99.90;;;;;;4957861;28;21060;-66
2023/04/16 11:43:32;;;;;;;29.20;19.10;;;15.20;99.90;;;;;;4961231;28;20074;-65
2023/04/16 11:46:02;;;;;;;26.52;19.17;;;15.20;99.90;;;;;;4964285;28;20067;-67
2023/04/16 11:48:49;;;;;;;32.70;19.73;;;15.20;99.90;;;;;;4963549;28;20038;-66
2023/04/16 11:51:15;;;;;;;30.90;19.45;;;15.20;99.90;;;;;;4966801;28;20047;-66
2023/04/16 11:53:48;;;;;;;30.55;18.92;;;15.20;99.90;;;;;;4966940;28;20046;-66
2023/04/16 11:56:14;;;;;;;31.98;18.88;;;15.20;99.90;;;;;;4967147;28;20042;-64
2023/04/16 11:58:40;;;;;;;31.60;19.20;;;15.20;99.90;;;;;;4963559;28;20109;-65
2023/04/16 12:01:08;;;;;;;34.63;17.13;;;15.20;99.90;;;;;;4962822;28;20551;-66
2023/04/16 12:03:42;;;;;;;30.50;18.88;;;15.10;99.90;;;;;;4968837;28;20046;-65
2023/04/16 12:06:09;;;;;;;25.58;17.17;;;15.00;99.90;;;;;;4964230;28;20039;-64
2023/04/16 12:08:35;;;;;;;32.15;18.80;;;15.10;99.90;;;;;;4958629;28;20039;-65
2023/04/16 12:11:00;;;;;;;32.90;17.77;;;15.30;99.90;;;;;;4951681;28;20046;-65
2023/04/16 12:13:26;;;;;;;26.13;17.50;;;15.50;99.90;;;;;;4967615;28;20069;-64
2023/04/16 12:15:55;;;;;;;28.35;18.15;;;15.70;99.90;;;;;;4958782;28;20043;-66
2023/04/16 12:18:23;;;;;;;29.38;17.80;;;15.80;99.90;;;;;;4961622;28;20031;-65
2023/04/16 12:20:50;;;;;;;28.42;17.55;;;15.80;99.90;;;;;;4964331;28;20094;-64
2023/04/16 12:23:30;;;;;;;27.27;18.65;;;15.80;99.90;;;;;;4963851;28;20122;-65
2023/04/16 12:26:01;;;;;;;29.13;17.73;;;15.80;99.90;;;;;;4962624;28;20047;-69
2023/04/16 12:28:34;;;;;;;25.30;16.17;;;15.90;99.90;;;;;;4956105;28;20069;-65
2023/04/16 12:31:01;;;;;;;23.45;15.43;;;15.90;99.90;;;;;;4951400;28;20589;-66